地図

経路データ

SID SEASON NUMBER BASIN SUBBASIN NAME ISO_TIME NATURE LAT LON WMO_WIND WMO_PRES WMO_AGENCY TRACK_TYPE DIST2LAND LANDFALL IFLAG USA_AGENCY USA_ATCF_ID USA_LAT USA_LON USA_RECORD USA_STATUS USA_WIND USA_PRES USA_SSHS USA_R34_NE USA_R34_SE USA_R34_SW USA_R34_NW USA_R50_NE USA_R50_SE USA_R50_SW USA_R50_NW USA_R64_NE USA_R64_SE USA_R64_SW USA_R64_NW USA_POCI USA_ROCI USA_RMW USA_EYE TOKYO_LAT TOKYO_LON TOKYO_GRADE TOKYO_WIND TOKYO_PRES TOKYO_R50_DIR TOKYO_R50_LONG TOKYO_R50_SHORT TOKYO_R30_DIR TOKYO_R30_LONG TOKYO_R30_SHORT TOKYO_LAND CMA_LAT CMA_LON CMA_CAT CMA_WIND CMA_PRES HKO_LAT HKO_LON HKO_CAT HKO_WIND HKO_PRES NEWDELHI_LAT NEWDELHI_LON NEWDELHI_GRADE NEWDELHI_WIND NEWDELHI_PRES NEWDELHI_CI NEWDELHI_DP NEWDELHI_POCI REUNION_LAT REUNION_LON REUNION_TYPE REUNION_WIND REUNION_PRES REUNION_TNUM REUNION_CI REUNION_RMW REUNION_R34_NE REUNION_R34_SE REUNION_R34_SW REUNION_R34_NW REUNION_R50_NE REUNION_R50_SE REUNION_R50_SW REUNION_R50_NW REUNION_R64_NE REUNION_R64_SE REUNION_R64_SW REUNION_R64_NW BOM_LAT BOM_LON BOM_TYPE BOM_WIND BOM_PRES BOM_TNUM BOM_CI BOM_RMW BOM_R34_NE BOM_R34_SE BOM_R34_SW BOM_R34_NW BOM_R50_NE BOM_R50_SE BOM_R50_SW BOM_R50_NW BOM_R64_NE BOM_R64_SE BOM_R64_SW BOM_R64_NW BOM_ROCI BOM_POCI BOM_EYE BOM_POS_METHOD BOM_PRES_METHOD NADI_LAT NADI_LON NADI_CAT NADI_WIND NADI_PRES WELLINGTON_LAT WELLINGTON_LON WELLINGTON_WIND WELLINGTON_PRES DS824_LAT DS824_LON DS824_STAGE DS824_WIND DS824_PRES TD9636_LAT TD9636_LON TD9636_STAGE TD9636_WIND TD9636_PRES TD9635_LAT TD9635_LON TD9635_WIND TD9635_PRES TD9635_ROCI NEUMANN_LAT NEUMANN_LON NEUMANN_CLASS NEUMANN_WIND NEUMANN_PRES MLC_LAT MLC_LON MLC_CLASS MLC_WIND MLC_PRES USA_GUST BOM_GUST BOM_GUST_PER REUNION_GUST REUNION_GUST_PER USA_SEAHGT USA_SEARAD_NE USA_SEARAD_SE USA_SEARAD_SW USA_SEARAD_NW STORM_SPEED STORM_DIR
1886168N19275 1886 15 NA CS NOT_NAMED 1886-06-17 00:00:00 TS 19.4333 -84.9667 35 hurdat_atl main 251 230 O____________O hurdat_atl AL021886 19.1000 -84.8000 TS 35 0 20.1000 -85.3000 TS 35 5 332
1886168N19275 1886 15 NA CS NOT_NAMED 1886-06-17 03:00:00 TS 19.6400 -85.0882 main 230 209 P____________P AL021886 19.3600 -84.9574 TS 35 0 20.2000 -85.3500 TS 35 5 331
1886168N19275 1886 15 NA CS NOT_NAMED 1886-06-17 06:00:00 TS 19.8333 -85.2000 35 hurdat_atl main 209 189 O____________O hurdat_atl AL021886 19.6000 -85.1000 TS 35 0 20.3000 -85.4000 TS 35 4 332
1886168N19275 1886 15 NA CS NOT_NAMED 1886-06-17 09:00:00 TS 20.0050 -85.2934 main 189 168 P____________P AL021886 19.8075 -85.2150 TS 37 0 20.4000 -85.4500 TS 35 4 335
1886168N19275 1886 15 NA CS NOT_NAMED 1886-06-17 12:00:00 TS 20.1667 -85.3667 40 hurdat_atl main 168 162 O____________O hurdat_atl AL021886 20.0000 -85.3000 TS 40 0 20.5000 -85.5000 TS 35 4 340
1886168N19275 1886 15 NA CS NOT_NAMED 1886-06-17 15:00:00 TS 20.3383 -85.4167 main 162 141 P____________P AL021886 20.2075 -85.3501 TS 40 0 20.6000 -85.5500 TS 35 3 344
1886168N19275 1886 15 NA CS NOT_NAMED 1886-06-17 18:00:00 TS 20.5000 -85.4667 40 hurdat_atl main 141 127 O____________O hurdat_atl AL021886 20.4000 -85.4000 TS 40 0 20.7000 -85.6000 TS 35 3 336
1886168N19275 1886 15 NA CS NOT_NAMED 1886-06-17 21:00:00 TS 20.6333 -85.5550 main 127 119 P____________P AL021886 20.5500 -85.5075 TS 42 0 20.8000 -85.6500 TS 37 3 330
1886168N19275 1886 15 NA CS NOT_NAMED 1886-06-18 00:00:00 TS 20.7667 -85.6333 45 hurdat_atl main 119 106 O____________O hurdat_atl AL021886 20.7000 -85.6000 TS 45 0 20.9000 -85.7000 TS 40 3 341
1886168N19275 1886 15 NA CS NOT_NAMED 1886-06-18 03:00:00 TS 20.9183 -85.6576 main 106 103 P____________P AL021886 20.8775 -85.6076 TS 47 0 21.0000 -85.7575 TS 40 3 353
1886168N19275 1886 15 NA CS NOT_NAMED 1886-06-18 06:00:00 TS 21.1000 -85.6667 50 hurdat_atl main 103 98 O____________O hurdat_atl AL021886 21.1000 -85.6000 TS 50 0 21.1000 -85.8000 TS 40 4 355
1886168N19275 1886 15 NA CS NOT_NAMED 1886-06-18 09:00:00 TS 21.3258 -85.7025 main 98 79 P____________P AL021886 21.4000 -85.6499 TS 52 0 21.1775 -85.8075 TS 40 5 353
1886168N19275 1886 15 NA CS NOT_NAMED 1886-06-18 12:00:00 TS 21.5667 -85.7333 55 hurdat_atl main 79 73 O____________O hurdat_atl AL021886 21.7000 -85.7000 TS 55 0 21.3000 -85.8000 TS 40 5 354
1886168N19275 1886 15 NA CS NOT_NAMED 1886-06-18 15:00:00 TS 21.7883 -85.7384 main 73 72 P____________P AL021886 21.9150 -85.7075 TS 60 0 21.5350 -85.8000 TS 40 4 1
1886168N19275 1886 15 NA GM NOT_NAMED 1886-06-18 18:00:00 TS 22.0000 -85.7333 65 hurdat_atl main 73 73 O____________O hurdat_atl AL021886 22.1000 -85.7000 HU 65 1 21.8000 -85.8000 TS 40 4 4
1886168N19275 1886 15 NA GM NOT_NAMED 1886-06-18 21:00:00 TS 22.2025 -85.7383 main 79 79 P____________P AL021886 22.3000 -85.7075 HU 67 1 22.0075 -85.8000 TS 42 4 0
1886168N19275 1886 15 NA GM NOT_NAMED 1886-06-19 00:00:00 TS 22.4000 -85.7333 70 hurdat_atl main 91 91 O____________O hurdat_atl AL021886 22.5000 -85.7000 HU 70 1 22.2000 -85.8000 TS 45 4 1
1886168N19275 1886 15 NA GM NOT_NAMED 1886-06-19 03:00:00 TS 22.6000 -85.7150 main 106 106 P____________P AL021886 22.7000 -85.6724 HU 72 1 22.4000 -85.8000 TS 45 4 8
1886168N19275 1886 15 NA GM NOT_NAMED 1886-06-19 06:00:00 TS 22.8000 -85.6667 75 hurdat_atl main 123 123 O____________O hurdat_atl AL021886 22.9000 -85.6000 HU 75 1 22.6000 -85.8000 TS 45 4 18
1886168N19275 1886 15 NA GM NOT_NAMED 1886-06-19 09:00:00 TS 22.9875 -85.5767 main 137 133 P____________P AL021886 23.0925 -85.4575 HU 77 1 22.7775 -85.8149 TS 45 4 25
1886168N19275 1886 15 NA GM NOT_NAMED 1886-06-19 12:00:00 TS 23.2000 -85.4667 80 hurdat_atl main 151 143 O____________O hurdat_atl AL021886 23.3000 -85.3000 HU 80 1 23.0000 -85.8000 TS 45 5 22
1886168N19275 1886 15 NA GM NOT_NAMED 1886-06-19 15:00:00 TS 23.4733 -85.3642 main 166 158 P____________P AL021886 23.5425 -85.1924 HU 80 1 23.3350 -85.7076 TS 45 6 18
1886168N19275 1886 15 NA GM NOT_NAMED 1886-06-19 18:00:00 TS 23.7667 -85.2667 80 hurdat_atl main 180 173 O____________O hurdat_atl AL021886 23.8000 -85.1000 HU 80 1 23.7000 -85.6000 TS 45 6 17
1886168N19275 1886 15 NA GM NOT_NAMED 1886-06-19 21:00:00 TS 24.0408 -85.1833 main 190 190 P____________P AL021886 24.0575 -85.0000 HU 82 1 24.0075 -85.5499 TS 47 6 16
1886168N19275 1886 15 NA GM NOT_NAMED 1886-06-20 00:00:00 TS 24.3000 -85.1000 85 hurdat_atl main 211 211 O____________O hurdat_atl AL021886 24.3000 -84.9000 HU 85 2 24.3000 -85.5000 TS 50 5 19
1886168N19275 1886 15 NA GM NOT_NAMED 1886-06-20 03:00:00 TS 24.5283 -85.0000 main 225 225 P____________P AL021886 24.4925 -84.7999 HU 85 2 24.6000 -85.4001 TS 52 5 21
1886168N19275 1886 15 NA GM NOT_NAMED 1886-06-20 06:00:00 TS 24.7667 -84.9000 85 hurdat_atl main 251 251 O____________O hurdat_atl AL021886 24.7000 -84.7000 HU 85 2 24.9000 -85.3000 TS 55 5 19
1886168N19275 1886 15 NA GM NOT_NAMED 1886-06-20 09:00:00 TS 25.0217 -84.8165 main 269 269 P____________P AL021886 24.9550 -84.5925 HU 85 2 25.1549 -85.2646 TS 55 6 14
1886168N19275 1886 15 NA GM NOT_NAMED 1886-06-20 12:00:00 TS 25.3667 -84.7333 85 hurdat_atl main 285 254 O____________O hurdat_atl AL021886 25.3000 -84.5000 HU 85 2 25.5000 -85.2000 TS 55 8 11
1886168N19275 1886 15 NA GM NOT_NAMED 1886-06-20 15:00:00 TS 25.8450 -84.6407 main 254 213 P____________P AL021886 25.7400 -84.4498 HU 85 2 26.0551 -85.0227 TS 55 11 10
1886168N19275 1886 15 NA GM NOT_NAMED 1886-06-20 18:00:00 TS 26.4333 -84.5333 85 hurdat_atl main 213 172 O____________O hurdat_atl AL021886 26.3000 -84.4000 HU 85 2 26.7000 -84.8000 TS 55 13 10
1886168N19275 1886 15 NA GM NOT_NAMED 1886-06-20 21:00:00 TS 27.0900 -84.4001 main 172 139 P____________P AL021886 26.9850 -84.3002 HU 85 2 27.3000 -84.5998 TS 55 14 10
1886168N19275 1886 15 NA GM NOT_NAMED 1886-06-21 00:00:00 TS 27.7667 -84.2667 85 hurdat_atl main 137 127 O____________O hurdat_atl AL021886 27.7000 -84.2000 HU 85 2 27.9000 -84.4000 TS 55 13 9
1886168N19275 1886 15 NA GM NOT_NAMED 1886-06-21 03:00:00 TS 28.3632 -84.1651 main 139 95 P____________P AL021886 28.2949 -84.1441 HU 85 2 28.4999 -84.2071 TS 55 12 8
1886168N19275 1886 15 NA GM NOT_NAMED 1886-06-21 06:00:00 TS 28.9667 -84.0667 85 hurdat_atl main 87 36 O____________O hurdat_atl AL021886 28.9000 -84.1000 HU 85 2 29.1000 -84.0000 TS 55 13 9
1886168N19275 1886 15 NA GM NOT_NAMED 1886-06-21 09:00:00 TS 29.6572 -83.9320 main 29 0 P____________P AL021886 29.6395 -84.0267 HU 85 2 29.6926 -83.7426 TS 55 14 9
1886168N19275 1886 15 NA NA NOT_NAMED 1886-06-21 11:00:00 TS 30.0981 -83.8582 85 hurdat_atl main 0 0 O____________P hurdat_atl AL021886 30.1000 -84.0000 L HU 85 2 30.0943 -83.5746 TS 55 13 8
1886168N19275 1886 15 NA NA NOT_NAMED 1886-06-21 12:00:00 TS 30.3000 -83.8333 80 hurdat_atl main 0 0 O____________O hurdat_atl AL021886 30.3000 -84.0000 HU 80 1 30.3000 -83.5000 TS 55 12 7
1886168N19275 1886 15 NA NA NOT_NAMED 1886-06-21 15:00:00 TS 30.8654 -83.7429 main 0 0 P____________P AL021886 30.8269 -83.9507 HU 72 1 30.9424 -83.3272 TS 55 11 10
1886168N19275 1886 15 NA NA NOT_NAMED 1886-06-21 18:00:00 TS 31.4000 -83.6000 65 hurdat_atl main 0 0 O____________O hurdat_atl AL021886 31.3000 -83.8000 HU 65 1 31.6000 -83.2000 TS 55 11 15
1886168N19275 1886 15 NA NA NOT_NAMED 1886-06-21 21:00:00 TS 31.9249 -83.4059 main 0 0 P____________P AL021886 31.7623 -83.5591 HU 55 0 32.2499 -83.0995 TS 50 12 20
1886168N19275 1886 15 NA NA NOT_NAMED 1886-06-22 00:00:00 TS 32.5000 -83.1333 45 hurdat_atl main 0 0 O____________O hurdat_atl AL021886 32.3000 -83.2000 TS 45 0 32.9000 -83.0000 TS 45 14 23
1886168N19275 1886 15 NA NA NOT_NAMED 1886-06-22 03:00:00 TS 33.1966 -82.7801 main 0 0 P____________P AL021886 33.0199 -82.7451 TS 42 0 33.5500 -82.8501 TS 42 16 24
1886168N19275 1886 15 NA NA NOT_NAMED 1886-06-22 06:00:00 TS 33.9333 -82.3667 40 hurdat_atl main 0 0 O____________O hurdat_atl AL021886 33.8000 -82.2000 TS 40 0 34.2000 -82.7000 TS 40 16 24
1886168N19275 1886 15 NA NA NOT_NAMED 1886-06-22 09:00:00 TS 34.6409 -81.9968 main 0 0 P____________P AL021886 34.5293 -81.6514 TS 37 0 34.8642 -82.6876 TS 37 15 28
1886168N19275 1886 15 NA NA NOT_NAMED 1886-06-22 12:00:00 TS 35.3000 -81.5000 35 hurdat_atl main 0 0 O____________O hurdat_atl AL021886 35.2000 -81.0000 TS 35 0 35.5000 -82.5000 TS 35 16 40
1886168N19275 1886 15 NA NA NOT_NAMED 1886-06-22 15:00:00 TS 35.8757 -80.7234 main 0 0 P____________P AL021886 35.7807 -80.1574 TS 35 0 36.0657 -81.8556 TS 32 17 50
1886168N19275 1886 15 NA NA NOT_NAMED 1886-06-22 18:00:00 TS 36.4000 -79.8667 35 hurdat_atl main 0 0 O____________O hurdat_atl AL021886 36.3000 -79.3000 TS 35 0 36.6000 -81.0000 TD 30 16 51
1886168N19275 1886 15 NA NA NOT_NAMED 1886-06-22 21:00:00 TS 36.9161 -79.1354 main 0 0 P____________P AL021886 36.7993 -78.6035 TS 32 -1 37.1498 -80.1992 TD 30 15 47
1886168N19275 1886 15 NA NA NOT_NAMED 1886-06-23 00:00:00 TS 37.4333 -78.4667 30 hurdat_atl main 0 0 O____________O hurdat_atl AL021886 37.3000 -78.0000 TD 30 -1 37.7000 -79.4000 TD 30 15 43
1886168N19275 1886 15 NA NA NOT_NAMED 1886-06-23 03:00:00 TS 37.9899 -77.8637 main 0 0 P____________P AL021886 37.8564 -77.4711 TD 30 -1 38.2567 -78.6488 TD 30 15 41
1886168N19275 1886 15 NA NA NOT_NAMED 1886-06-23 06:00:00 TS 38.5333 -77.2333 30 hurdat_atl main 0 0 O____________O hurdat_atl AL021886 38.4000 -76.9000 TD 30 -1 38.8000 -77.9000 TD 30 15 44
1886168N19275 1886 15 NA NA NOT_NAMED 1886-06-23 09:00:00 TS 39.0474 -76.5478 main 0 0 P____________P AL021886 38.8868 -76.1745 TD 30 -1 39.3686 -77.2943 TD 30 16 53
1886168N19275 1886 15 NA NA NOT_NAMED 1886-06-23 12:00:00 TS 39.4667 -75.6333 30 hurdat_atl main 0 0 O____________O hurdat_atl AL021886 39.3000 -75.3000 TD 30 -1 39.8000 -76.3000 TD 30 18 68
1886168N19275 1886 15 NA NA NOT_NAMED 1886-06-23 15:00:00 TS 39.7380 -74.3882 main 0 0 P____________P AL021886 39.6423 -74.3689 TD 30 -1 39.9295 -74.4268 TD 30 22 78
1886168N19275 1886 15 NA NA NOT_NAMED 1886-06-23 18:00:00 MX 39.9000 -72.8667 30 hurdat_atl main 90 90 O____________O hurdat_atl AL021886 39.9000 -73.2000 TD 30 -1 39.9000 -72.2000 EX 30 24 83
1886168N19275 1886 15 NA NA NOT_NAMED 1886-06-23 21:00:00 MX 40.0323 -71.2281 main 147 147 P____________P AL021886 40.1005 -71.7428 TD 30 -1 39.8958 -70.1987 EX 30 27 86
1886168N19275 1886 15 NA NA NOT_NAMED 1886-06-24 00:00:00 MX 40.1000 -69.4000 30 hurdat_atl main 184 184 O____________O hurdat_atl AL021886 40.2000 -70.0000 TD 30 -1 39.9000 -68.2000 EX 30 29 89
1886168N19275 1886 15 NA NA NOT_NAMED 1886-06-24 03:00:00 MX 40.1005 -67.4495 main 281 281 P____________P AL021886 40.1773 -68.0950 TD 30 -1 39.9468 -66.1585 EX 30 30 91
1886168N19275 1886 15 NA NA NOT_NAMED 1886-06-24 06:00:00 MX 40.0727 -65.4818 30 hurdat_atl main 378 378 O____________O hurdat_atl AL021886 40.1000 -66.0000 TD 30 -1 40.0000 -64.1000 EX 30 31 91
1886168N19275 1886 15 NA NA NOT_NAMED 1886-06-24 09:00:00 MX 40.0421 -63.4394 main 419 419 P____________P AL021886 40.0478 -63.7875 TD 30 -1 40.0195 -62.0468 EX 30 32 91
1886168N19275 1886 15 NA NA NOT_NAMED 1886-06-24 12:00:00 MX 40.0000 -61.2857 30 hurdat_atl main 510 510 O____________O hurdat_atl AL021886 40.0000 -61.5000 TD 30 -1 40.0000 -60.0000 EX 30 32 92
1886168N19275 1886 15 NA NA NOT_NAMED 1886-06-24 15:00:00 TS 39.9575 -59.2375 main 598 598 P_____________ AL021886 39.9575 -59.2375 TD 30 -1 EX 33 92
1886168N19275 1886 15 NA NA NOT_NAMED 1886-06-24 18:00:00 TS 39.9000 -57.0000 30 hurdat_atl main 677 O_____________ hurdat_atl AL021886 39.9000 -57.0000 TD 30 -1 34 92

IBTrACS Databaseについて

本データベースは、米国NOAAが公開する1842年以降の世界の熱帯低気圧のベストトラックデータアーカイブInternational Best Track Archive for Climate Stewardship (IBTrACS)を、ウェブで閲覧しやすい形式に変換したものです。

最終更新日:2021-11-26